RJDB(METAR)
10/20 18:00
RJDB 200900Z 04016KT 9999 FEW030 20/11 Q1022 RMK A3020=
戻る
トップページへ戻る
IMOC Co,.Ltd.